Alvord, Texas
Current Conditions -  °F | °C
As of 9:35 PM on Friday 24 Oct 2014 (Local Time) from KLUD Reporting Station
Clear Clear  
Wind Chill: 74°   Ceiling: Unl
Heat Index: 74°   Visibility: 10mi
Dew Point: 59°   Wind: 12mph
Humidity: 59%   Direction: 170°S
Pressure: 30.09"   Gusts: NA
Location:  33.36°N, 97.69°W
Report Text: KLUD 250235Z AUTO 17010KT 10SM CLR 24/15 A3009 RMK AO2 T02350150
Loading
Personal Weather Stations






























Interactive Weather Map
Tropical Storm Tracking
New forecast layout! Learn more

10-Day Weather Forecast

Advertisements
Track Severe Weather on mobile